Big Lake, AK

11:35 AM AKDT on September 27, 2016 (GMT -0800)
Wasilla

Weather History for PAWS - June, 2013

Change the Weather History Date:

Monday, June 10, 2013

  Actual Average Record
Temperature  
Mean Temperature 58 °F -  
Max Temperature 71 °F 65 °F 79 °F (1992)
Min Temperature 46 °F 42 °F 34 °F (1985)
Degree Days  
Heating Degree Days 6    
Growing Degree Days 8 (Base 50)    
Moisture  
Dew Point 41 °F    
Average Humidity 50    
Maximum Humidity 82    
Minimum Humidity 31    
Precipitation  
Precipitation 0.00 in - - ()
Sea Level Pressure  
Sea Level Pressure 30.18 in    
Wind  
Wind Speed 3 mph (WSW)    
Max Wind Speed 12 mph    
Max Gust Speed 17 mph    
Visibility 10 miles    
Events      
Averages and records for this station are not official NWS values.
T = Trace of Precipitation, MM = Missing Value Source: NWS Daily Summary

Daily Weather History Graph

Daily Weather History Graph

Search for Another Location

Airport or City:

Trip Planner

Search our weather history database for the weather conditions in past years. The results will help you decide how hot, cold, wet, or windy it might be!

Date:

Astronomy

Jun. 10, 2013 Rise Set
Actual Time 4:17 AM AKDT 11:38 PM AKDT
Civil Twilight 2:30 AM AKDT 1:25 AM AKDT
Nautical Twilight Sun does not set Sun does not set
Astronomical Twilight Sun does not set Sun does not set
Moon 6:54 AM AKDT (6/10) No Moon Set
Length of Visible Light 22h 55m
Length of Day
19h 20m
Waxing Crescent, 4% of the Moon is Illuminated
Jun 10
Waxing Crescent
Jun 16
First Quarter
Jun 23
Full
Jun 29
Last Quarter
Jul 7
New

Hourly Weather History & Observations

Time (AKDT) Temp. Dew Point Humidity Pressure Visibility Wind Dir Wind Speed Gust Speed Precip Events Conditions
12:16 AM 57.2 °F 41.0 °F 55% 30.19 in 10.0 mi Calm Calm - N/A   Partly Cloudy
12:36 AM 57.2 °F 39.2 °F 51% 30.19 in 10.0 mi Calm Calm - N/A   Clear
12:56 AM 57.2 °F 39.2 °F 51% 30.19 in 10.0 mi SW 3.5 mph - N/A   Clear
1:16 AM 57.2 °F 39.2 °F 51% 30.20 in 10.0 mi WSW 4.6 mph - N/A   Partly Cloudy
1:36 AM 57.2 °F 39.2 °F 51% 30.21 in 10.0 mi NW 4.6 mph - N/A   Clear
1:56 AM 55.4 °F 39.2 °F 54% 30.21 in 10.0 mi Calm Calm - N/A   Clear
2:16 AM 53.6 °F 41.0 °F 62% 30.21 in 10.0 mi Calm Calm - N/A   Clear
2:36 AM 51.8 °F 39.2 °F 62% 30.21 in 10.0 mi Calm Calm - N/A   Clear
2:56 AM 50.0 °F 41.0 °F 71% 30.21 in 10.0 mi Calm Calm - N/A   Mostly Cloudy
3:16 AM 50.0 °F 41.0 °F 71% 30.22 in 10.0 mi Calm Calm - N/A   Scattered Clouds
3:36 AM 48.2 °F 41.0 °F 76% 30.22 in 10.0 mi Calm Calm - N/A   Clear
3:56 AM 48.2 °F 42.8 °F 82% 30.22 in 10.0 mi Calm Calm - N/A   Clear
4:16 AM 46.4 °F 41.0 °F 81% 30.23 in 10.0 mi Calm Calm - N/A   Clear
4:36 AM 46.4 °F 41.0 °F 81% 30.23 in 10.0 mi Calm Calm - N/A   Clear
4:56 AM 46.4 °F 39.2 °F 76% 30.23 in 10.0 mi Calm Calm - N/A   Clear
5:16 AM 46.4 °F 39.2 °F 76% 30.23 in 10.0 mi Calm Calm - N/A   Clear
5:36 AM 46.4 °F 39.2 °F 76% 30.23 in 10.0 mi Calm Calm - N/A   Clear
5:56 AM 46.4 °F 39.2 °F 76% 30.23 in 10.0 mi Calm Calm - N/A   Clear
6:16 AM 48.2 °F 41.0 °F 76% 30.23 in 10.0 mi Calm Calm - N/A   Clear
6:36 AM 48.2 °F 42.8 °F 82% 30.23 in 10.0 mi Calm Calm - N/A   Clear
6:56 AM 50.0 °F 42.8 °F 76% 30.23 in 10.0 mi Calm Calm - N/A   Clear
7:16 AM 53.6 °F 44.6 °F 72% 30.23 in 10.0 mi Calm Calm - N/A   Clear
7:36 AM 55.4 °F 44.6 °F 67% 30.23 in 10.0 mi ENE 3.5 mph - N/A   Clear
7:56 AM 57.2 °F 44.6 °F 63% 30.23 in 10.0 mi Calm Calm - N/A   Clear
8:16 AM 57.2 °F 46.4 °F 67% 30.23 in 10.0 mi Calm Calm - N/A   Clear
8:36 AM 59.0 °F 44.6 °F 59% 30.23 in 10.0 mi South 3.5 mph - N/A   Clear
8:56 AM 60.8 °F 44.6 °F 55% 30.23 in 10.0 mi South 3.5 mph - N/A   Clear
9:16 AM 60.8 °F 42.8 °F 52% 30.23 in 10.0 mi SSW 4.6 mph - N/A   Clear
9:36 AM 60.8 °F 42.8 °F 52% 30.23 in 10.0 mi Calm Calm - N/A   Clear
9:56 AM 62.6 °F 42.8 °F 48% 30.23 in 10.0 mi SSW 3.5 mph - N/A   Clear
10:16 AM 64.4 °F 42.8 °F 45% 30.23 in 10.0 mi WSW 3.5 mph - N/A   Clear
10:36 AM 66.2 °F 42.8 °F 43% 30.22 in 10.0 mi NNW 5.8 mph - N/A   Clear
10:56 AM 66.2 °F 42.8 °F 43% 30.22 in 10.0 mi Calm Calm - N/A   Clear
11:16 AM 64.4 °F 42.8 °F 45% 30.22 in 10.0 mi Calm Calm - N/A   Clear
11:36 AM 68.0 °F 42.8 °F 40% 30.21 in 10.0 mi West 4.6 mph - N/A   Clear
11:56 AM 69.8 °F 42.8 °F 38% 30.21 in 10.0 mi West 3.5 mph - N/A   Clear
12:16 PM 69.8 °F 42.8 °F 38% 30.21 in 10.0 mi WNW 4.6 mph - N/A   Clear
12:36 PM 71.6 °F 41.0 °F 33% 30.20 in 10.0 mi NW 9.2 mph - N/A   Clear
12:56 PM 71.6 °F 42.8 °F 35% 30.20 in 10.0 mi NW 6.9 mph - N/A   Clear
1:16 PM 69.8 °F 41.0 °F 35% 30.19 in 10.0 mi Calm Calm - N/A   Clear
1:36 PM 71.6 °F 39.2 °F 31% 30.18 in 10.0 mi WNW 11.5 mph - N/A   Partly Cloudy
1:56 PM 71.6 °F 39.2 °F 31% 30.18 in 10.0 mi NW 9.2 mph - N/A   Partly Cloudy
2:16 PM 71.6 °F 39.2 °F 31% 30.17 in 10.0 mi WNW 10.4 mph 17.3 mph N/A   Scattered Clouds
2:36 PM 71.6 °F 42.8 °F 35% 30.16 in 10.0 mi SW 5.8 mph - N/A   Partly Cloudy
2:56 PM 69.8 °F 42.8 °F 38% 30.16 in 10.0 mi South 5.8 mph - N/A   Mostly Cloudy
3:16 PM 69.8 °F 44.6 °F 40% 30.15 in 10.0 mi SW 9.2 mph - N/A   Mostly Cloudy
3:36 PM 69.8 °F 44.6 °F 40% 30.15 in 10.0 mi South 6.9 mph - N/A   Scattered Clouds
3:56 PM 69.8 °F 44.6 °F 40% 30.15 in 10.0 mi SSW 9.2 mph - N/A   Mostly Cloudy
4:16 PM 69.8 °F 42.8 °F 38% 30.14 in 10.0 mi SSE 3.5 mph - N/A   Scattered Clouds
4:36 PM 71.6 °F 44.6 °F 38% 30.14 in 10.0 mi SW 4.6 mph - N/A   Mostly Cloudy
4:56 PM 71.6 °F 42.8 °F 35% 30.13 in 10.0 mi SSW 5.8 mph - N/A   Partly Cloudy
5:16 PM 69.8 °F 42.8 °F 38% 30.13 in 10.0 mi SW 6.9 mph - N/A   Mostly Cloudy
5:36 PM 69.8 °F 42.8 °F 38% 30.12 in 10.0 mi South 5.8 mph - N/A   Overcast
5:56 PM 69.8 °F 44.6 °F 40% 30.12 in 10.0 mi SW 8.1 mph - N/A   Scattered Clouds
6:16 PM 69.8 °F 42.8 °F 38% 30.12 in 10.0 mi SSW 10.4 mph - N/A   Clear
6:36 PM 69.8 °F 42.8 °F 38% 30.11 in 10.0 mi South 9.2 mph - N/A   Clear
6:56 PM 69.8 °F 42.8 °F 38% 30.11 in 10.0 mi SSW 8.1 mph 16.1 mph N/A   Partly Cloudy
7:16 PM 69.8 °F 42.8 °F 38% 30.10 in 10.0 mi South 8.1 mph 17.3 mph N/A   Partly Cloudy
7:36 PM 71.6 °F 41.0 °F 33% 30.10 in 10.0 mi WSW 8.1 mph - N/A   Partly Cloudy
7:56 PM 71.6 °F 39.2 °F 31% 30.10 in 10.0 mi WSW 10.4 mph 17.3 mph N/A   Clear
8:16 PM 69.8 °F 39.2 °F 33% 30.10 in 10.0 mi WSW 8.1 mph - N/A   Clear
8:36 PM 69.8 °F 42.8 °F 38% 30.10 in 10.0 mi SSW 6.9 mph - N/A   Clear
8:56 PM 68.0 °F 42.8 °F 40% 30.10 in 10.0 mi SW 6.9 mph - N/A   Clear
9:16 PM 68.0 °F 37.4 °F 33% 30.10 in 10.0 mi West 10.4 mph - N/A   Clear
9:36 PM 66.2 °F 37.4 °F 35% 30.11 in 10.0 mi West 9.2 mph - N/A   Clear
9:56 PM 64.4 °F 37.4 °F 37% 30.11 in 10.0 mi West 8.1 mph - N/A   Clear
10:16 PM 64.4 °F 37.4 °F 37% 30.11 in 10.0 mi West 5.8 mph - N/A   Clear
10:36 PM 62.6 °F 37.4 °F 39% 30.11 in 10.0 mi West 5.8 mph - N/A   Clear
10:56 PM 60.8 °F 37.4 °F 42% 30.11 in 10.0 mi SW 4.6 mph - N/A   Clear
11:16 PM 60.8 °F 37.4 °F 42% 30.12 in 10.0 mi SW 3.5 mph - N/A   Clear
11:36 PM 59.0 °F 37.4 °F 45% 30.12 in 10.0 mi Calm Calm - N/A   Clear
11:56 PM 57.2 °F 39.2 °F 51% 30.12 in 10.0 mi Calm Calm - N/A   Clear